sensor_id;sensor_type;location;lat;lon;timestamp;temperature;humidity
24468;DHT22;12634;50.852;5.676;2023-05-24T00:01:54;7.30;99.90
24468;DHT22;12634;50.852;5.676;2023-05-24T00:04:22;7.20;99.90
24468;DHT22;12634;50.852;5.676;2023-05-24T00:06:52;7.10;99.90
24468;DHT22;12634;50.852;5.676;2023-05-24T00:09:20;7.10;99.90
24468;DHT22;12634;50.852;5.676;2023-05-24T00:11:47;7.20;99.90
24468;DHT22;12634;50.852;5.676;2023-05-24T00:14:15;7.10;99.90
24468;DHT22;12634;50.852;5.676;2023-05-24T00:16:42;7.20;99.90
24468;DHT22;12634;50.852;5.676;2023-05-24T00:19:11;7.10;99.90
24468;DHT22;12634;50.852;5.676;2023-05-24T00:21:43;7.00;99.90
24468;DHT22;12634;50.852;5.676;2023-05-24T00:24:11;7.10;99.90
24468;DHT22;12634;50.852;5.676;2023-05-24T00:26:39;7.10;99.90
24468;DHT22;12634;50.852;5.676;2023-05-24T00:29:06;7.10;99.90
24468;DHT22;12634;50.852;5.676;2023-05-24T00:31:33;7.00;99.90
24468;DHT22;12634;50.852;5.676;2023-05-24T00:34:00;6.90;99.90
24468;DHT22;12634;50.852;5.676;2023-05-24T00:36:27;6.80;99.90
24468;DHT22;12634;50.852;5.676;2023-05-24T00:38:54;6.60;99.90
24468;DHT22;12634;50.852;5.676;2023-05-24T00:41:23;6.40;99.90
24468;DHT22;12634;50.852;5.676;2023-05-24T00:43:51;6.20;99.90
24468;DHT22;12634;50.852;5.676;2023-05-24T00:46:20;6.30;99.90
24468;DHT22;12634;50.852;5.676;2023-05-24T00:48:48;6.20;99.90
24468;DHT22;12634;50.852;5.676;2023-05-24T00:51:15;6.20;99.90
24468;DHT22;12634;50.852;5.676;2023-05-24T00:53:45;6.00;99.90
24468;DHT22;12634;50.852;5.676;2023-05-24T00:56:13;6.00;99.90
24468;DHT22;12634;50.852;5.676;2023-05-24T00:58:42;5.80;99.90
24468;DHT22;12634;50.852;5.676;2023-05-24T01:01:09;5.70;99.90
24468;DHT22;12634;50.852;5.676;2023-05-24T01:03:37;5.60;99.90
24468;DHT22;12634;50.852;5.676;2023-05-24T01:06:06;5.50;99.90
24468;DHT22;12634;50.852;5.676;2023-05-24T01:08:46;5.40;99.90
24468;DHT22;12634;50.852;5.676;2023-05-24T01:11:20;5.20;99.90
24468;DHT22;12634;50.852;5.676;2023-05-24T01:13:56;5.10;99.90
24468;DHT22;12634;50.852;5.676;2023-05-24T01:16:28;5.40;99.90
24468;DHT22;12634;50.852;5.676;2023-05-24T01:19:01;5.70;99.90
24468;DHT22;12634;50.852;5.676;2023-05-24T01:21:41;5.40;99.90
24468;DHT22;12634;50.852;5.676;2023-05-24T01:24:18;5.50;99.90
24468;DHT22;12634;50.852;5.676;2023-05-24T01:27:04;5.40;99.90
24468;DHT22;12634;50.852;5.676;2023-05-24T01:29:32;5.50;99.90
24468;DHT22;12634;50.852;5.676;2023-05-24T01:32:00;5.80;99.90
24468;DHT22;12634;50.852;5.676;2023-05-24T01:34:27;6.00;99.90
24468;DHT22;12634;50.852;5.676;2023-05-24T01:36:55;6.00;99.90
24468;DHT22;12634;50.852;5.676;2023-05-24T01:39:24;5.90;99.90
24468;DHT22;12634;50.852;5.676;2023-05-24T01:42:04;6.00;99.90
24468;DHT22;12634;50.852;5.676;2023-05-24T01:44:36;5.90;99.90
24468;DHT22;12634;50.852;5.676;2023-05-24T01:47:13;6.00;99.90
24468;DHT22;12634;50.852;5.676;2023-05-24T01:49:48;5.90;99.90
24468;DHT22;12634;50.852;5.676;2023-05-24T01:52:19;5.70;99.90
24468;DHT22;12634;50.852;5.676;2023-05-24T01:54:51;5.50;99.90
24468;DHT22;12634;50.852;5.676;2023-05-24T01:57:22;5.30;99.90
24468;DHT22;12634;50.852;5.676;2023-05-24T01:59:49;5.30;99.90
24468;DHT22;12634;50.852;5.676;2023-05-24T02:02:17;5.40;99.90
24468;DHT22;12634;50.852;5.676;2023-05-24T02:04:45;5.80;99.90
24468;DHT22;12634;50.852;5.676;2023-05-24T02:07:12;5.70;99.90
24468;DHT22;12634;50.852;5.676;2023-05-24T02:09:39;5.70;99.90
24468;DHT22;12634;50.852;5.676;2023-05-24T02:12:07;5.50;99.90
24468;DHT22;12634;50.852;5.676;2023-05-24T02:14:36;5.60;99.90
24468;DHT22;12634;50.852;5.676;2023-05-24T02:17:04;5.50;99.90
24468;DHT22;12634;50.852;5.676;2023-05-24T02:19:31;5.50;99.90
24468;DHT22;12634;50.852;5.676;2023-05-24T02:21:59;5.30;99.90
24468;DHT22;12634;50.852;5.676;2023-05-24T02:24:26;5.50;99.90
24468;DHT22;12634;50.852;5.676;2023-05-24T02:26:54;5.70;99.90
24468;DHT22;12634;50.852;5.676;2023-05-24T02:29:21;5.70;99.90
24468;DHT22;12634;50.852;5.676;2023-05-24T02:31:50;5.80;99.90
24468;DHT22;12634;50.852;5.676;2023-05-24T02:34:21;5.70;99.90
24468;DHT22;12634;50.852;5.676;2023-05-24T02:36:49;5.70;99.90
24468;DHT22;12634;50.852;5.676;2023-05-24T02:39:16;5.70;99.90
24468;DHT22;12634;50.852;5.676;2023-05-24T02:41:43;5.70;99.90
24468;DHT22;12634;50.852;5.676;2023-05-24T02:44:10;5.70;99.90
24468;DHT22;12634;50.852;5.676;2023-05-24T02:46:37;5.60;99.90
24468;DHT22;12634;50.852;5.676;2023-05-24T02:49:06;5.60;99.90
24468;DHT22;12634;50.852;5.676;2023-05-24T02:51:34;5.70;99.90
24468;DHT22;12634;50.852;5.676;2023-05-24T02:54:02;5.60;99.90
24468;DHT22;12634;50.852;5.676;2023-05-24T02:56:30;5.70;99.90
24468;DHT22;12634;50.852;5.676;2023-05-24T02:58:57;5.60;99.90
24468;DHT22;12634;50.852;5.676;2023-05-24T03:01:24;5.60;99.90
24468;DHT22;12634;50.852;5.676;2023-05-24T03:03:52;5.60;99.90
24468;DHT22;12634;50.852;5.676;2023-05-24T03:06:20;5.60;99.90
24468;DHT22;12634;50.852;5.676;2023-05-24T03:08:47;5.70;99.90
24468;DHT22;12634;50.852;5.676;2023-05-24T03:11:15;5.60;99.90
24468;DHT22;12634;50.852;5.676;2023-05-24T03:13:46;5.50;99.90
24468;DHT22;12634;50.852;5.676;2023-05-24T03:16:13;5.40;99.90
24468;DHT22;12634;50.852;5.676;2023-05-24T03:18:41;5.40;99.90
24468;DHT22;12634;50.852;5.676;2023-05-24T03:21:08;5.50;99.90
24468;DHT22;12634;50.852;5.676;2023-05-24T03:23:37;5.40;99.90
24468;DHT22;12634;50.852;5.676;2023-05-24T03:26:05;5.30;99.90
24468;DHT22;12634;50.852;5.676;2023-05-24T03:28:32;5.20;99.90
24468;DHT22;12634;50.852;5.676;2023-05-24T03:31:00;5.40;99.90
24468;DHT22;12634;50.852;5.676;2023-05-24T03:33:27;5.50;99.90
24468;DHT22;12634;50.852;5.676;2023-05-24T03:35:54;5.40;99.90
24468;DHT22;12634;50.852;5.676;2023-05-24T03:38:21;5.40;99.90
24468;DHT22;12634;50.852;5.676;2023-05-24T03:40:50;5.40;99.90
24468;DHT22;12634;50.852;5.676;2023-05-24T03:43:17;5.30;99.90
24468;DHT22;12634;50.852;5.676;2023-05-24T03:45:44;5.40;99.90
24468;DHT22;12634;50.852;5.676;2023-05-24T03:48:12;5.40;99.90
24468;DHT22;12634;50.852;5.676;2023-05-24T03:50:39;5.50;99.90
24468;DHT22;12634;50.852;5.676;2023-05-24T03:53:06;5.50;99.90
24468;DHT22;12634;50.852;5.676;2023-05-24T03:55:33;5.50;99.90
24468;DHT22;12634;50.852;5.676;2023-05-24T03:58:01;5.50;99.90
24468;DHT22;12634;50.852;5.676;2023-05-24T04:00:29;5.50;99.90
24468;DHT22;12634;50.852;5.676;2023-05-24T04:02:56;5.50;99.90
24468;DHT22;12634;50.852;5.676;2023-05-24T04:05:23;5.60;99.90
24468;DHT22;12634;50.852;5.676;2023-05-24T04:07:54;5.60;99.90
24468;DHT22;12634;50.852;5.676;2023-05-24T04:10:21;5.50;99.90
24468;DHT22;12634;50.852;5.676;2023-05-24T04:12:48;5.60;99.90
24468;DHT22;12634;50.852;5.676;2023-05-24T04:15:17;5.60;99.90
24468;DHT22;12634;50.852;5.676;2023-05-24T04:17:44;5.70;99.90
24468;DHT22;12634;50.852;5.676;2023-05-24T04:20:12;5.80;99.90
24468;DHT22;12634;50.852;5.676;2023-05-24T04:22:40;5.90;99.90
24468;DHT22;12634;50.852;5.676;2023-05-24T04:25:08;5.80;99.90
24468;DHT22;12634;50.852;5.676;2023-05-24T04:27:35;5.90;99.90
24468;DHT22;12634;50.852;5.676;2023-05-24T04:30:03;6.00;99.90
24468;DHT22;12634;50.852;5.676;2023-05-24T04:32:31;6.00;99.90
24468;DHT22;12634;50.852;5.676;2023-05-24T04:35:00;6.00;99.90
24468;DHT22;12634;50.852;5.676;2023-05-24T04:37:29;6.20;99.90
24468;DHT22;12634;50.852;5.676;2023-05-24T04:39:56;6.50;99.90
24468;DHT22;12634;50.852;5.676;2023-05-24T04:42:23;6.70;99.90
24468;DHT22;12634;50.852;5.676;2023-05-24T04:44:51;7.00;99.90
24468;DHT22;12634;50.852;5.676;2023-05-24T04:47:18;7.00;99.90
24468;DHT22;12634;50.852;5.676;2023-05-24T04:49:47;7.00;99.90
24468;DHT22;12634;50.852;5.676;2023-05-24T04:52:14;7.10;99.90
24468;DHT22;12634;50.852;5.676;2023-05-24T04:54:41;7.10;99.90
24468;DHT22;12634;50.852;5.676;2023-05-24T04:57:08;7.20;99.90
24468;DHT22;12634;50.852;5.676;2023-05-24T04:59:36;7.80;99.90
24468;DHT22;12634;50.852;5.676;2023-05-24T05:02:03;8.20;99.90
24468;DHT22;12634;50.852;5.676;2023-05-24T05:04:31;8.40;99.90
24468;DHT22;12634;50.852;5.676;2023-05-24T05:06:59;8.60;99.90
24468;DHT22;12634;50.852;5.676;2023-05-24T05:09:28;8.60;99.90
24468;DHT22;12634;50.852;5.676;2023-05-24T05:11:55;8.80;99.90
24468;DHT22;12634;50.852;5.676;2023-05-24T05:14:22;8.50;99.90
24468;DHT22;12634;50.852;5.676;2023-05-24T05:16:50;8.30;99.90
24468;DHT22;12634;50.852;5.676;2023-05-24T05:19:17;8.20;99.90
24468;DHT22;12634;50.852;5.676;2023-05-24T05:21:44;8.30;99.90
24468;DHT22;12634;50.852;5.676;2023-05-24T05:24:14;8.40;99.90
24468;DHT22;12634;50.852;5.676;2023-05-24T05:26:41;8.40;99.90
24468;DHT22;12634;50.852;5.676;2023-05-24T05:29:08;8.40;99.90
24468;DHT22;12634;50.852;5.676;2023-05-24T05:31:35;8.50;99.90
24468;DHT22;12634;50.852;5.676;2023-05-24T05:34:04;8.80;99.90
24468;DHT22;12634;50.852;5.676;2023-05-24T05:36:34;8.80;99.90
24468;DHT22;12634;50.852;5.676;2023-05-24T05:39:05;8.80;99.90
24468;DHT22;12634;50.852;5.676;2023-05-24T05:41:38;8.80;99.90
24468;DHT22;12634;50.852;5.676;2023-05-24T05:44:07;8.90;99.90
24468;DHT22;12634;50.852;5.676;2023-05-24T05:46:34;8.80;99.90
24468;DHT22;12634;50.852;5.676;2023-05-24T05:49:01;8.70;99.90
24468;DHT22;12634;50.852;5.676;2023-05-24T05:51:28;8.80;99.90
24468;DHT22;12634;50.852;5.676;2023-05-24T05:53:55;8.70;99.90
24468;DHT22;12634;50.852;5.676;2023-05-24T05:56:22;8.80;99.90
24468;DHT22;12634;50.852;5.676;2023-05-24T05:58:51;8.90;99.90
24468;DHT22;12634;50.852;5.676;2023-05-24T06:01:18;9.10;99.90
24468;DHT22;12634;50.852;5.676;2023-05-24T06:03:45;9.30;99.90
24468;DHT22;12634;50.852;5.676;2023-05-24T06:06:12;9.50;99.90
24468;DHT22;12634;50.852;5.676;2023-05-24T06:08:39;9.70;99.90
24468;DHT22;12634;50.852;5.676;2023-05-24T06:11:06;9.80;99.90
24468;DHT22;12634;50.852;5.676;2023-05-24T06:13:34;10.00;99.90
24468;DHT22;12634;50.852;5.676;2023-05-24T06:16:02;10.40;99.90
24468;DHT22;12634;50.852;5.676;2023-05-24T06:18:29;11.00;99.90
24468;DHT22;12634;50.852;5.676;2023-05-24T06:20:57;11.70;99.90
24468;DHT22;12634;50.852;5.676;2023-05-24T06:23:24;12.90;99.90
24468;DHT22;12634;50.852;5.676;2023-05-24T06:25:51;13.30;99.90
24468;DHT22;12634;50.852;5.676;2023-05-24T06:28:18;13.50;99.90
24468;DHT22;12634;50.852;5.676;2023-05-24T06:30:46;13.60;99.90
24468;DHT22;12634;50.852;5.676;2023-05-24T06:33:14;13.70;99.90
24468;DHT22;12634;50.852;5.676;2023-05-24T06:35:42;14.20;99.90
24468;DHT22;12634;50.852;5.676;2023-05-24T06:38:09;14.70;99.90
24468;DHT22;12634;50.852;5.676;2023-05-24T06:40:36;15.30;99.90
24468;DHT22;12634;50.852;5.676;2023-05-24T06:43:03;15.20;99.90
24468;DHT22;12634;50.852;5.676;2023-05-24T06:45:31;15.50;99.90
24468;DHT22;12634;50.852;5.676;2023-05-24T06:47:58;15.50;99.90
24468;DHT22;12634;50.852;5.676;2023-05-24T06:50:26;15.70;99.90
24468;DHT22;12634;50.852;5.676;2023-05-24T06:52:53;16.10;99.90
24468;DHT22;12634;50.852;5.676;2023-05-24T06:55:21;16.90;99.90
24468;DHT22;12634;50.852;5.676;2023-05-24T06:57:48;16.40;99.90
24468;DHT22;12634;50.852;5.676;2023-05-24T07:00:16;16.70;99.90
24468;DHT22;12634;50.852;5.676;2023-05-24T07:02:43;16.80;99.90
24468;DHT22;12634;50.852;5.676;2023-05-24T07:05:11;16.90;99.90
24468;DHT22;12634;50.852;5.676;2023-05-24T07:07:39;17.10;99.90
24468;DHT22;12634;50.852;5.676;2023-05-24T07:10:08;16.80;99.90
24468;DHT22;12634;50.852;5.676;2023-05-24T07:12:36;17.10;99.90
24468;DHT22;12634;50.852;5.676;2023-05-24T07:15:04;17.10;99.90
24468;DHT22;12634;50.852;5.676;2023-05-24T07:17:33;17.40;99.90
24468;DHT22;12634;50.852;5.676;2023-05-24T07:20:00;17.60;99.90
24468;DHT22;12634;50.852;5.676;2023-05-24T07:22:30;18.60;99.90
24468;DHT22;12634;50.852;5.676;2023-05-24T07:24:58;18.20;99.90
24468;DHT22;12634;50.852;5.676;2023-05-24T07:27:26;17.90;99.90
24468;DHT22;12634;50.852;5.676;2023-05-24T07:29:53;17.70;99.90
24468;DHT22;12634;50.852;5.676;2023-05-24T07:32:20;18.10;99.90
24468;DHT22;12634;50.852;5.676;2023-05-24T07:34:48;17.40;99.90
24468;DHT22;12634;50.852;5.676;2023-05-24T07:37:15;17.60;99.90
24468;DHT22;12634;50.852;5.676;2023-05-24T07:39:42;17.00;99.90
24468;DHT22;12634;50.852;5.676;2023-05-24T07:42:11;17.60;99.90
24468;DHT22;12634;50.852;5.676;2023-05-24T07:44:38;18.00;99.90
24468;DHT22;12634;50.852;5.676;2023-05-24T07:47:05;18.20;99.90
24468;DHT22;12634;50.852;5.676;2023-05-24T07:49:32;19.00;99.90
24468;DHT22;12634;50.852;5.676;2023-05-24T07:51:59;19.00;99.90
24468;DHT22;12634;50.852;5.676;2023-05-24T07:54:28;18.60;99.90
24468;DHT22;12634;50.852;5.676;2023-05-24T07:56:55;19.30;99.90
24468;DHT22;12634;50.852;5.676;2023-05-24T07:59:24;18.70;99.90
24468;DHT22;12634;50.852;5.676;2023-05-24T08:01:51;19.00;99.90
24468;DHT22;12634;50.852;5.676;2023-05-24T08:04:19;19.50;99.90
24468;DHT22;12634;50.852;5.676;2023-05-24T08:06:46;19.30;99.90
24468;DHT22;12634;50.852;5.676;2023-05-24T08:09:13;19.10;99.90
24468;DHT22;12634;50.852;5.676;2023-05-24T08:11:41;19.90;99.90
24468;DHT22;12634;50.852;5.676;2023-05-24T08:14:08;20.00;99.90
24468;DHT22;12634;50.852;5.676;2023-05-24T08:16:37;20.00;99.90
24468;DHT22;12634;50.852;5.676;2023-05-24T08:19:04;19.40;99.90
24468;DHT22;12634;50.852;5.676;2023-05-24T08:21:31;20.10;99.90
24468;DHT22;12634;50.852;5.676;2023-05-24T08:23:59;19.40;99.90
24468;DHT22;12634;50.852;5.676;2023-05-24T08:26:26;20.00;99.90
24468;DHT22;12634;50.852;5.676;2023-05-24T08:28:53;19.30;99.90
24468;DHT22;12634;50.852;5.676;2023-05-24T08:31:20;19.20;99.90
24468;DHT22;12634;50.852;5.676;2023-05-24T08:33:49;18.80;99.90
24468;DHT22;12634;50.852;5.676;2023-05-24T08:36:16;19.90;99.90
24468;DHT22;12634;50.852;5.676;2023-05-24T08:38:43;20.00;99.90
24468;DHT22;12634;50.852;5.676;2023-05-24T08:41:11;20.50;99.90
24468;DHT22;12634;50.852;5.676;2023-05-24T08:43:38;19.40;99.90
24468;DHT22;12634;50.852;5.676;2023-05-24T08:46:06;18.50;99.90
24468;DHT22;12634;50.852;5.676;2023-05-24T08:48:34;17.70;99.90
24468;DHT22;12634;50.852;5.676;2023-05-24T08:51:07;18.50;99.90
24468;DHT22;12634;50.852;5.676;2023-05-24T08:53:34;18.10;99.90
24468;DHT22;12634;50.852;5.676;2023-05-24T08:56:04;18.60;99.90
24468;DHT22;12634;50.852;5.676;2023-05-24T08:58:32;19.30;99.90
24468;DHT22;12634;50.852;5.676;2023-05-24T09:01:00;19.70;99.90
24468;DHT22;12634;50.852;5.676;2023-05-24T09:03:28;20.50;99.90
24468;DHT22;12634;50.852;5.676;2023-05-24T09:05:56;20.30;99.90
24468;DHT22;12634;50.852;5.676;2023-05-24T09:08:27;19.80;99.90
24468;DHT22;12634;50.852;5.676;2023-05-24T09:10:55;20.00;99.90
24468;DHT22;12634;50.852;5.676;2023-05-24T09:13:22;20.80;99.90
24468;DHT22;12634;50.852;5.676;2023-05-24T09:15:50;21.10;99.90
24468;DHT22;12634;50.852;5.676;2023-05-24T09:18:17;21.50;99.90
24468;DHT22;12634;50.852;5.676;2023-05-24T09:20:45;21.50;99.90
24468;DHT22;12634;50.852;5.676;2023-05-24T09:23:12;21.10;99.90
24468;DHT22;12634;50.852;5.676;2023-05-24T09:25:43;21.30;99.90
24468;DHT22;12634;50.852;5.676;2023-05-24T09:28:12;21.20;99.90
24468;DHT22;12634;50.852;5.676;2023-05-24T09:30:42;21.40;99.90
24468;DHT22;12634;50.852;5.676;2023-05-24T09:33:10;21.40;99.90
24468;DHT22;12634;50.852;5.676;2023-05-24T09:35:41;22.10;99.90
24468;DHT22;12634;50.852;5.676;2023-05-24T09:38:15;21.90;99.90
24468;DHT22;12634;50.852;5.676;2023-05-24T09:40:45;22.00;99.90
24468;DHT22;12634;50.852;5.676;2023-05-24T09:43:12;21.20;99.90
24468;DHT22;12634;50.852;5.676;2023-05-24T09:45:44;20.30;99.90
24468;DHT22;12634;50.852;5.676;2023-05-24T09:48:12;20.50;99.90
24468;DHT22;12634;50.852;5.676;2023-05-24T09:50:40;20.20;99.90
24468;DHT22;12634;50.852;5.676;2023-05-24T09:53:07;20.30;99.90
24468;DHT22;12634;50.852;5.676;2023-05-24T09:55:35;20.80;99.90
24468;DHT22;12634;50.852;5.676;2023-05-24T09:58:05;20.50;99.90
24468;DHT22;12634;50.852;5.676;2023-05-24T10:00:33;20.30;99.90
24468;DHT22;12634;50.852;5.676;2023-05-24T10:03:02;19.80;99.90
24468;DHT22;12634;50.852;5.676;2023-05-24T10:05:31;20.30;99.90
24468;DHT22;12634;50.852;5.676;2023-05-24T10:07:59;20.20;99.90
24468;DHT22;12634;50.852;5.676;2023-05-24T10:10:28;20.20;99.90
24468;DHT22;12634;50.852;5.676;2023-05-24T10:12:57;20.80;99.90
24468;DHT22;12634;50.852;5.676;2023-05-24T10:15:26;21.10;99.90
24468;DHT22;12634;50.852;5.676;2023-05-24T10:17:54;21.40;99.90
24468;DHT22;12634;50.852;5.676;2023-05-24T10:20:22;20.90;99.90
24468;DHT22;12634;50.852;5.676;2023-05-24T10:22:51;20.90;99.90
24468;DHT22;12634;50.852;5.676;2023-05-24T10:25:21;20.60;99.90
24468;DHT22;12634;50.852;5.676;2023-05-24T10:27:53;20.30;99.90
24468;DHT22;12634;50.852;5.676;2023-05-24T10:30:28;19.80;99.90
24468;DHT22;12634;50.852;5.676;2023-05-24T10:32:58;20.00;99.90
24468;DHT22;12634;50.852;5.676;2023-05-24T10:35:27;20.20;99.90
24468;DHT22;12634;50.852;5.676;2023-05-24T10:37:55;19.60;99.90
24468;DHT22;12634;50.852;5.676;2023-05-24T10:40:23;20.30;99.90
24468;DHT22;12634;50.852;5.676;2023-05-24T10:42:51;20.90;99.90
24468;DHT22;12634;50.852;5.676;2023-05-24T10:45:38;21.50;99.90
24468;DHT22;12634;50.852;5.676;2023-05-24T10:48:33;22.00;99.90
24468;DHT22;12634;50.852;5.676;2023-05-24T10:51:14;21.00;99.90
24468;DHT22;12634;50.852;5.676;2023-05-24T10:53:56;21.60;99.90
24468;DHT22;12634;50.852;5.676;2023-05-24T10:56:26;22.20;99.90
24468;DHT22;12634;50.852;5.676;2023-05-24T10:58:59;21.30;99.90
24468;DHT22;12634;50.852;5.676;2023-05-24T11:01:29;21.20;99.90
24468;DHT22;12634;50.852;5.676;2023-05-24T11:04:06;20.90;99.90
24468;DHT22;12634;50.852;5.676;2023-05-24T11:06:46;20.90;99.90
24468;DHT22;12634;50.852;5.676;2023-05-24T11:09:14;21.70;99.90
24468;DHT22;12634;50.852;5.676;2023-05-24T11:11:46;21.70;99.90
24468;DHT22;12634;50.852;5.676;2023-05-24T11:14:18;21.50;99.90
24468;DHT22;12634;50.852;5.676;2023-05-24T11:16:48;21.50;99.90
24468;DHT22;12634;50.852;5.676;2023-05-24T11:19:17;21.60;99.90
24468;DHT22;12634;50.852;5.676;2023-05-24T11:21:45;22.80;99.90
24468;DHT22;12634;50.852;5.676;2023-05-24T11:24:13;22.90;99.90
24468;DHT22;12634;50.852;5.676;2023-05-24T11:26:40;22.70;99.90
24468;DHT22;12634;50.852;5.676;2023-05-24T11:29:07;22.70;99.90
24468;DHT22;12634;50.852;5.676;2023-05-24T11:31:35;22.50;99.90
24468;DHT22;12634;50.852;5.676;2023-05-24T11:34:09;21.50;99.90
24468;DHT22;12634;50.852;5.676;2023-05-24T11:36:36;20.20;99.90
24468;DHT22;12634;50.852;5.676;2023-05-24T11:39:06;20.80;99.90
24468;DHT22;12634;50.852;5.676;2023-05-24T11:41:37;20.80;99.90
24468;DHT22;12634;50.852;5.676;2023-05-24T11:44:07;19.50;99.90
24468;DHT22;12634;50.852;5.676;2023-05-24T11:46:34;19.70;99.90
24468;DHT22;12634;50.852;5.676;2023-05-24T11:49:03;18.90;99.90
24468;DHT22;12634;50.852;5.676;2023-05-24T11:51:33;18.80;99.90
24468;DHT22;12634;50.852;5.676;2023-05-24T11:54:02;18.80;99.90
24468;DHT22;12634;50.852;5.676;2023-05-24T11:56:30;18.70;99.90
24468;DHT22;12634;50.852;5.676;2023-05-24T11:59:14;18.30;99.90
24468;DHT22;12634;50.852;5.676;2023-05-24T12:01:42;18.20;99.90
24468;DHT22;12634;50.852;5.676;2023-05-24T12:04:10;18.00;99.90
24468;DHT22;12634;50.852;5.676;2023-05-24T12:06:39;17.50;99.90
24468;DHT22;12634;50.852;5.676;2023-05-24T12:09:08;17.50;99.90
24468;DHT22;12634;50.852;5.676;2023-05-24T12:11:38;17.70;99.90
24468;DHT22;12634;50.852;5.676;2023-05-24T12:14:06;17.90;99.90
24468;DHT22;12634;50.852;5.676;2023-05-24T12:16:37;18.40;99.90
24468;DHT22;12634;50.852;5.676;2023-05-24T12:19:04;18.70;99.90
24468;DHT22;12634;50.852;5.676;2023-05-24T12:21:31;19.30;99.90
24468;DHT22;12634;50.852;5.676;2023-05-24T12:24:11;19.20;99.90
24468;DHT22;12634;50.852;5.676;2023-05-24T12:26:42;19.00;99.90
24468;DHT22;12634;50.852;5.676;2023-05-24T12:29:10;19.00;99.90
24468;DHT22;12634;50.852;5.676;2023-05-24T12:31:42;19.40;99.90
24468;DHT22;12634;50.852;5.676;2023-05-24T12:34:11;18.80;99.90
24468;DHT22;12634;50.852;5.676;2023-05-24T12:36:39;18.40;99.90
24468;DHT22;12634;50.852;5.676;2023-05-24T12:39:19;18.20;99.90
24468;DHT22;12634;50.852;5.676;2023-05-24T12:41:51;18.20;99.90
24468;DHT22;12634;50.852;5.676;2023-05-24T12:44:23;18.00;99.90
24468;DHT22;12634;50.852;5.676;2023-05-24T12:46:52;18.20;99.90
24468;DHT22;12634;50.852;5.676;2023-05-24T12:49:20;17.90;99.90
24468;DHT22;12634;50.852;5.676;2023-05-24T12:51:47;17.90;99.90
24468;DHT22;12634;50.852;5.676;2023-05-24T12:54:16;17.50;99.90
24468;DHT22;12634;50.852;5.676;2023-05-24T12:56:45;17.40;99.90
24468;DHT22;12634;50.852;5.676;2023-05-24T12:59:12;17.20;99.90
24468;DHT22;12634;50.852;5.676;2023-05-24T13:01:40;17.20;99.90
24468;DHT22;12634;50.852;5.676;2023-05-24T13:04:07;17.00;99.90
24468;DHT22;12634;50.852;5.676;2023-05-24T13:06:35;17.00;99.90
24468;DHT22;12634;50.852;5.676;2023-05-24T13:09:03;17.40;99.90
24468;DHT22;12634;50.852;5.676;2023-05-24T13:11:31;17.00;99.90
24468;DHT22;12634;50.852;5.676;2023-05-24T13:13:59;16.70;99.90
24468;DHT22;12634;50.852;5.676;2023-05-24T13:16:27;16.80;99.90
24468;DHT22;12634;50.852;5.676;2023-05-24T13:18:54;17.20;99.90
24468;DHT22;12634;50.852;5.676;2023-05-24T13:21:21;17.70;99.90
24468;DHT22;12634;50.852;5.676;2023-05-24T13:23:49;18.10;99.90
24468;DHT22;12634;50.852;5.676;2023-05-24T13:26:17;18.30;99.90
24468;DHT22;12634;50.852;5.676;2023-05-24T13:28:44;18.80;99.90
24468;DHT22;12634;50.852;5.676;2023-05-24T13:31:12;19.00;99.90
24468;DHT22;12634;50.852;5.676;2023-05-24T13:33:40;18.70;99.90
24468;DHT22;12634;50.852;5.676;2023-05-24T13:36:07;18.90;99.90
24468;DHT22;12634;50.852;5.676;2023-05-24T13:38:35;19.20;99.90
24468;DHT22;12634;50.852;5.676;2023-05-24T13:41:03;19.50;99.90
24468;DHT22;12634;50.852;5.676;2023-05-24T13:43:30;18.70;99.90
24468;DHT22;12634;50.852;5.676;2023-05-24T13:45:57;18.20;99.90
24468;DHT22;12634;50.852;5.676;2023-05-24T13:48:26;18.30;99.90
24468;DHT22;12634;50.852;5.676;2023-05-24T13:50:53;18.20;99.90
24468;DHT22;12634;50.852;5.676;2023-05-24T13:53:20;17.90;99.90
24468;DHT22;12634;50.852;5.676;2023-05-24T13:55:48;18.00;99.90
24468;DHT22;12634;50.852;5.676;2023-05-24T13:58:15;18.30;99.90
24468;DHT22;12634;50.852;5.676;2023-05-24T14:00:42;18.30;99.90
24468;DHT22;12634;50.852;5.676;2023-05-24T14:03:10;18.60;99.90
24468;DHT22;12634;50.852;5.676;2023-05-24T14:05:39;19.70;99.90
24468;DHT22;12634;50.852;5.676;2023-05-24T14:08:06;20.80;99.90
24468;DHT22;12634;50.852;5.676;2023-05-24T14:10:34;20.60;99.90
24468;DHT22;12634;50.852;5.676;2023-05-24T14:13:01;20.60;99.90
24468;DHT22;12634;50.852;5.676;2023-05-24T14:15:29;19.80;99.90
24468;DHT22;12634;50.852;5.676;2023-05-24T14:17:56;21.20;99.90
24468;DHT22;12634;50.852;5.676;2023-05-24T14:20:25;20.80;99.90
24468;DHT22;12634;50.852;5.676;2023-05-24T14:22:54;20.40;99.90
24468;DHT22;12634;50.852;5.676;2023-05-24T14:25:21;20.00;99.90
24468;DHT22;12634;50.852;5.676;2023-05-24T14:27:48;21.00;99.90
24468;DHT22;12634;50.852;5.676;2023-05-24T14:30:15;22.40;99.90
24468;DHT22;12634;50.852;5.676;2023-05-24T14:32:43;22.80;99.90
24468;DHT22;12634;50.852;5.676;2023-05-24T14:35:10;22.20;99.90
24468;DHT22;12634;50.852;5.676;2023-05-24T14:37:37;21.40;99.90
24468;DHT22;12634;50.852;5.676;2023-05-24T14:40:07;21.20;99.90
24468;DHT22;12634;50.852;5.676;2023-05-24T14:42:35;20.50;99.90
24468;DHT22;12634;50.852;5.676;2023-05-24T14:45:02;20.20;99.90
24468;DHT22;12634;50.852;5.676;2023-05-24T14:47:29;19.10;99.90
24468;DHT22;12634;50.852;5.676;2023-05-24T14:49:56;19.10;99.90
24468;DHT22;12634;50.852;5.676;2023-05-24T14:52:23;19.10;99.90
24468;DHT22;12634;50.852;5.676;2023-05-24T14:54:51;18.70;99.90
24468;DHT22;12634;50.852;5.676;2023-05-24T14:57:19;18.40;99.90
24468;DHT22;12634;50.852;5.676;2023-05-24T14:59:46;17.90;99.90
24468;DHT22;12634;50.852;5.676;2023-05-24T15:02:14;17.60;99.90
24468;DHT22;12634;50.852;5.676;2023-05-24T15:04:41;17.10;99.90
24468;DHT22;12634;50.852;5.676;2023-05-24T15:07:08;17.00;99.90
24468;DHT22;12634;50.852;5.676;2023-05-24T15:09:36;16.70;99.90
24468;DHT22;12634;50.852;5.676;2023-05-24T15:12:04;16.50;99.90
24468;DHT22;12634;50.852;5.676;2023-05-24T15:14:33;16.20;99.90
24468;DHT22;12634;50.852;5.676;2023-05-24T15:17:02;16.20;99.90
24468;DHT22;12634;50.852;5.676;2023-05-24T15:19:29;16.00;99.90
24468;DHT22;12634;50.852;5.676;2023-05-24T15:21:56;15.80;99.90
24468;DHT22;12634;50.852;5.676;2023-05-24T15:24:23;15.70;99.90
24468;DHT22;12634;50.852;5.676;2023-05-24T15:26:50;15.60;99.90
24468;DHT22;12634;50.852;5.676;2023-05-24T15:29:18;15.60;99.90
24468;DHT22;12634;50.852;5.676;2023-05-24T15:31:47;15.60;99.90
24468;DHT22;12634;50.852;5.676;2023-05-24T15:34:15;15.50;99.90
24468;DHT22;12634;50.852;5.676;2023-05-24T15:36:43;15.60;99.90
24468;DHT22;12634;50.852;5.676;2023-05-24T15:39:11;15.60;99.90
24468;DHT22;12634;50.852;5.676;2023-05-24T15:41:38;15.60;99.90
24468;DHT22;12634;50.852;5.676;2023-05-24T15:44:05;15.60;99.90
24468;DHT22;12634;50.852;5.676;2023-05-24T15:46:33;15.70;99.90